South Sutton, New Hampshire
Current Conditions -  °F | °C
As of 10:51 PM on Tuesday 27 Jan 2015 (Local Time) from KCON Reporting Station
Light Snow Light Snow  
Wind Chill: -4°   Ceiling: 3500
Heat Index: 12°   Visibility: 5mi
Dew Point:   Wind: 15mph
Humidity: 67%   Direction: 320°NW
Pressure: 29.68"   Gusts: NA
Location:  43.32°N, 71.93°W
Report Text: KCON 280351Z AUTO 32013KT 5SM -SN OVC035 M11/M16 A2968 RMK AO2 SLP057 P0000 T11111161
Loading
Personal Weather Stations






























Interactive Weather Map New forecast layout! Learn more

10-Day Weather Forecast

Advertisements
Track Severe Weather on mobile